sensor_id;sensor_type;location;lat;lon;timestamp;P1;durP1;ratioP1;P2;durP2;ratioP2
17510;SDS011;8873;48.818;9.422;2023-02-28T00:00:02;3.93;;;2.97;;
17510;SDS011;8873;48.818;9.422;2023-02-28T00:02:35;4.73;;;2.80;;
17510;SDS011;8873;48.818;9.422;2023-02-28T00:05:06;3.13;;;2.83;;
17510;SDS011;8873;48.818;9.422;2023-02-28T00:07:35;4.20;;;2.70;;
17510;SDS011;8873;48.818;9.422;2023-02-28T00:10:03;6.20;;;3.03;;
17510;SDS011;8873;48.818;9.422;2023-02-28T00:12:34;5.80;;;3.00;;
17510;SDS011;8873;48.818;9.422;2023-02-28T00:15:08;4.37;;;3.03;;
17510;SDS011;8873;48.818;9.422;2023-02-28T00:17:36;6.90;;;3.67;;
17510;SDS011;8873;48.818;9.422;2023-02-28T00:20:04;4.93;;;3.03;;
17510;SDS011;8873;48.818;9.422;2023-02-28T00:22:34;5.07;;;3.20;;
17510;SDS011;8873;48.818;9.422;2023-02-28T00:25:05;7.70;;;3.07;;
17510;SDS011;8873;48.818;9.422;2023-02-28T00:27:38;5.27;;;3.40;;
17510;SDS011;8873;48.818;9.422;2023-02-28T00:30:08;6.13;;;3.47;;
17510;SDS011;8873;48.818;9.422;2023-02-28T00:32:36;3.60;;;3.30;;
17510;SDS011;8873;48.818;9.422;2023-02-28T00:35:07;3.93;;;3.60;;
17510;SDS011;8873;48.818;9.422;2023-02-28T00:37:35;5.63;;;3.10;;
17510;SDS011;8873;48.818;9.422;2023-02-28T00:40:04;6.60;;;3.40;;
17510;SDS011;8873;48.818;9.422;2023-02-28T00:42:32;3.87;;;3.37;;
17510;SDS011;8873;48.818;9.422;2023-02-28T00:45:07;4.63;;;3.27;;
17510;SDS011;8873;48.818;9.422;2023-02-28T00:47:40;5.23;;;3.53;;
17510;SDS011;8873;48.818;9.422;2023-02-28T00:50:08;4.57;;;2.90;;
17510;SDS011;8873;48.818;9.422;2023-02-28T00:52:37;6.40;;;3.30;;
17510;SDS011;8873;48.818;9.422;2023-02-28T00:55:05;3.10;;;2.80;;
17510;SDS011;8873;48.818;9.422;2023-02-28T00:57:33;4.63;;;3.03;;
17510;SDS011;8873;48.818;9.422;2023-02-28T01:00:01;6.00;;;3.30;;
17510;SDS011;8873;48.818;9.422;2023-02-28T01:02:31;3.80;;;3.50;;
17510;SDS011;8873;48.818;9.422;2023-02-28T01:05:00;4.30;;;3.37;;
17510;SDS011;8873;48.818;9.422;2023-02-28T01:07:28;4.70;;;3.80;;
17510;SDS011;8873;48.818;9.422;2023-02-28T01:09:56;5.07;;;3.73;;
17510;SDS011;8873;48.818;9.422;2023-02-28T01:12:24;4.70;;;3.63;;
17510;SDS011;8873;48.818;9.422;2023-02-28T01:14:56;4.43;;;3.57;;
17510;SDS011;8873;48.818;9.422;2023-02-28T01:17:24;8.30;;;3.70;;
17510;SDS011;8873;48.818;9.422;2023-02-28T01:19:54;5.40;;;3.30;;
17510;SDS011;8873;48.818;9.422;2023-02-28T01:22:22;5.83;;;3.37;;
17510;SDS011;8873;48.818;9.422;2023-02-28T01:24:50;4.47;;;3.70;;
17510;SDS011;8873;48.818;9.422;2023-02-28T01:27:21;6.67;;;4.03;;
17510;SDS011;8873;48.818;9.422;2023-02-28T01:29:50;6.87;;;3.63;;
17510;SDS011;8873;48.818;9.422;2023-02-28T01:32:23;5.60;;;3.80;;
17510;SDS011;8873;48.818;9.422;2023-02-28T01:34:51;5.00;;;3.87;;
17510;SDS011;8873;48.818;9.422;2023-02-28T01:37:21;8.13;;;3.90;;
17510;SDS011;8873;48.818;9.422;2023-02-28T01:39:49;5.50;;;3.90;;
17510;SDS011;8873;48.818;9.422;2023-02-28T01:42:17;11.77;;;3.90;;
17510;SDS011;8873;48.818;9.422;2023-02-28T01:47:36;5.07;;;3.57;;
17510;SDS011;8873;48.818;9.422;2023-02-28T01:50:07;4.97;;;3.63;;
17510;SDS011;8873;48.818;9.422;2023-02-28T01:52:38;5.17;;;3.60;;
17510;SDS011;8873;48.818;9.422;2023-02-28T01:55:06;6.13;;;3.67;;
17510;SDS011;8873;48.818;9.422;2023-02-28T01:57:35;5.67;;;3.30;;
17510;SDS011;8873;48.818;9.422;2023-02-28T02:00:06;4.77;;;3.70;;
17510;SDS011;8873;48.818;9.422;2023-02-28T02:02:46;5.33;;;3.80;;
17510;SDS011;8873;48.818;9.422;2023-02-28T02:05:16;8.43;;;4.17;;
17510;SDS011;8873;48.818;9.422;2023-02-28T02:07:45;4.67;;;3.53;;
17510;SDS011;8873;48.818;9.422;2023-02-28T02:10:16;6.57;;;4.10;;
17510;SDS011;8873;48.818;9.422;2023-02-28T02:12:51;6.97;;;4.10;;
17510;SDS011;8873;48.818;9.422;2023-02-28T02:15:42;5.50;;;3.73;;
17510;SDS011;8873;48.818;9.422;2023-02-28T02:18:14;9.33;;;4.03;;
17510;SDS011;8873;48.818;9.422;2023-02-28T02:21:02;6.40;;;3.70;;
17510;SDS011;8873;48.818;9.422;2023-02-28T02:26:31;7.07;;;3.80;;
17510;SDS011;8873;48.818;9.422;2023-02-28T02:29:06;6.07;;;3.87;;
17510;SDS011;8873;48.818;9.422;2023-02-28T02:31:52;5.10;;;3.87;;
17510;SDS011;8873;48.818;9.422;2023-02-28T02:37:18;9.27;;;4.37;;
17510;SDS011;8873;48.818;9.422;2023-02-28T02:39:50;6.33;;;4.10;;
17510;SDS011;8873;48.818;9.422;2023-02-28T02:42:23;4.60;;;4.10;;
17510;SDS011;8873;48.818;9.422;2023-02-28T02:44:55;5.63;;;4.17;;
17510;SDS011;8873;48.818;9.422;2023-02-28T02:47:26;8.37;;;4.13;;
17510;SDS011;8873;48.818;9.422;2023-02-28T02:49:55;5.60;;;4.47;;
17510;SDS011;8873;48.818;9.422;2023-02-28T02:52:27;4.97;;;3.80;;
17510;SDS011;8873;48.818;9.422;2023-02-28T02:54:58;8.90;;;4.30;;
17510;SDS011;8873;48.818;9.422;2023-02-28T02:57:27;14.47;;;5.27;;
17510;SDS011;8873;48.818;9.422;2023-02-28T02:59:56;6.73;;;4.23;;
17510;SDS011;8873;48.818;9.422;2023-02-28T03:02:28;6.13;;;4.20;;
17510;SDS011;8873;48.818;9.422;2023-02-28T03:05:01;7.40;;;4.30;;
17510;SDS011;8873;48.818;9.422;2023-02-28T03:07:39;11.43;;;4.70;;
17510;SDS011;8873;48.818;9.422;2023-02-28T03:12:53;9.10;;;4.30;;
17510;SDS011;8873;48.818;9.422;2023-02-28T03:15:26;5.83;;;4.37;;
17510;SDS011;8873;48.818;9.422;2023-02-28T03:18:00;7.53;;;4.20;;
17510;SDS011;8873;48.818;9.422;2023-02-28T03:20:35;7.60;;;4.60;;
17510;SDS011;8873;48.818;9.422;2023-02-28T03:23:13;6.57;;;4.13;;
17510;SDS011;8873;48.818;9.422;2023-02-28T03:25:48;6.07;;;4.33;;
17510;SDS011;8873;48.818;9.422;2023-02-28T03:28:18;7.57;;;4.70;;
17510;SDS011;8873;48.818;9.422;2023-02-28T03:30:53;10.10;;;4.93;;
17510;SDS011;8873;48.818;9.422;2023-02-28T03:33:23;5.83;;;4.17;;
17510;SDS011;8873;48.818;9.422;2023-02-28T03:35:52;6.97;;;3.83;;
17510;SDS011;8873;48.818;9.422;2023-02-28T03:38:31;7.13;;;4.23;;
17510;SDS011;8873;48.818;9.422;2023-02-28T03:41:03;5.30;;;4.20;;
17510;SDS011;8873;48.818;9.422;2023-02-28T03:43:34;7.87;;;4.73;;
17510;SDS011;8873;48.818;9.422;2023-02-28T03:46:06;6.17;;;4.47;;
17510;SDS011;8873;48.818;9.422;2023-02-28T03:48:38;6.77;;;4.70;;
17510;SDS011;8873;48.818;9.422;2023-02-28T03:51:08;7.50;;;4.23;;
17510;SDS011;8873;48.818;9.422;2023-02-28T03:53:44;10.93;;;4.70;;
17510;SDS011;8873;48.818;9.422;2023-02-28T03:56:24;7.83;;;4.60;;
17510;SDS011;8873;48.818;9.422;2023-02-28T03:59:18;8.70;;;4.60;;
17510;SDS011;8873;48.818;9.422;2023-02-28T04:01:47;6.43;;;4.63;;
17510;SDS011;8873;48.818;9.422;2023-02-28T04:06:49;6.87;;;4.60;;
17510;SDS011;8873;48.818;9.422;2023-02-28T04:09:17;5.53;;;3.70;;
17510;SDS011;8873;48.818;9.422;2023-02-28T04:11:45;8.67;;;4.70;;
17510;SDS011;8873;48.818;9.422;2023-02-28T04:14:14;8.57;;;4.70;;
17510;SDS011;8873;48.818;9.422;2023-02-28T04:16:43;8.87;;;5.50;;
17510;SDS011;8873;48.818;9.422;2023-02-28T04:19:11;7.80;;;4.83;;
17510;SDS011;8873;48.818;9.422;2023-02-28T04:21:40;10.87;;;4.77;;
17510;SDS011;8873;48.818;9.422;2023-02-28T04:24:08;6.47;;;4.47;;
17510;SDS011;8873;48.818;9.422;2023-02-28T04:26:40;10.10;;;4.37;;
17510;SDS011;8873;48.818;9.422;2023-02-28T04:29:10;6.93;;;4.60;;
17510;SDS011;8873;48.818;9.422;2023-02-28T04:31:38;7.00;;;4.73;;
17510;SDS011;8873;48.818;9.422;2023-02-28T04:34:07;9.33;;;5.10;;
17510;SDS011;8873;48.818;9.422;2023-02-28T04:36:35;8.40;;;4.60;;
17510;SDS011;8873;48.818;9.422;2023-02-28T04:39:03;7.67;;;4.77;;
17510;SDS011;8873;48.818;9.422;2023-02-28T04:41:31;7.53;;;4.97;;
17510;SDS011;8873;48.818;9.422;2023-02-28T04:43:59;9.47;;;5.57;;
17510;SDS011;8873;48.818;9.422;2023-02-28T04:46:27;7.63;;;4.80;;
17510;SDS011;8873;48.818;9.422;2023-02-28T04:48:54;8.43;;;4.87;;
17510;SDS011;8873;48.818;9.422;2023-02-28T04:51:23;7.47;;;4.87;;
17510;SDS011;8873;48.818;9.422;2023-02-28T04:53:51;7.43;;;4.70;;
17510;SDS011;8873;48.818;9.422;2023-02-28T04:56:19;9.07;;;4.73;;
17510;SDS011;8873;48.818;9.422;2023-02-28T04:58:47;8.97;;;5.33;;
17510;SDS011;8873;48.818;9.422;2023-02-28T05:01:18;7.77;;;5.23;;
17510;SDS011;8873;48.818;9.422;2023-02-28T05:03:47;9.60;;;5.40;;
17510;SDS011;8873;48.818;9.422;2023-02-28T05:06:15;8.20;;;5.43;;
17510;SDS011;8873;48.818;9.422;2023-02-28T05:08:44;7.43;;;4.67;;
17510;SDS011;8873;48.818;9.422;2023-02-28T05:11:16;9.60;;;5.60;;
17510;SDS011;8873;48.818;9.422;2023-02-28T05:13:45;9.70;;;5.47;;
17510;SDS011;8873;48.818;9.422;2023-02-28T05:16:13;8.07;;;5.03;;
17510;SDS011;8873;48.818;9.422;2023-02-28T05:18:40;11.33;;;5.20;;
17510;SDS011;8873;48.818;9.422;2023-02-28T05:21:17;10.53;;;5.23;;
17510;SDS011;8873;48.818;9.422;2023-02-28T05:23:52;8.17;;;4.80;;
17510;SDS011;8873;48.818;9.422;2023-02-28T05:26:19;9.77;;;5.17;;
17510;SDS011;8873;48.818;9.422;2023-02-28T05:28:50;13.37;;;5.50;;
17510;SDS011;8873;48.818;9.422;2023-02-28T05:31:18;10.33;;;5.37;;
17510;SDS011;8873;48.818;9.422;2023-02-28T05:33:48;7.30;;;4.87;;
17510;SDS011;8873;48.818;9.422;2023-02-28T05:36:16;7.10;;;4.90;;
17510;SDS011;8873;48.818;9.422;2023-02-28T05:38:45;11.57;;;5.40;;
17510;SDS011;8873;48.818;9.422;2023-02-28T05:41:14;7.13;;;4.77;;
17510;SDS011;8873;48.818;9.422;2023-02-28T05:43:42;9.57;;;5.27;;
17510;SDS011;8873;48.818;9.422;2023-02-28T05:46:10;11.93;;;5.43;;
17510;SDS011;8873;48.818;9.422;2023-02-28T05:48:39;12.10;;;5.17;;
17510;SDS011;8873;48.818;9.422;2023-02-28T05:51:07;8.13;;;5.37;;
17510;SDS011;8873;48.818;9.422;2023-02-28T05:53:35;8.90;;;5.57;;
17510;SDS011;8873;48.818;9.422;2023-02-28T05:56:03;10.50;;;5.27;;
17510;SDS011;8873;48.818;9.422;2023-02-28T05:58:32;9.80;;;5.20;;
17510;SDS011;8873;48.818;9.422;2023-02-28T06:01:18;10.63;;;5.23;;
17510;SDS011;8873;48.818;9.422;2023-02-28T06:03:46;7.83;;;5.40;;
17510;SDS011;8873;48.818;9.422;2023-02-28T06:06:14;8.73;;;5.47;;
17510;SDS011;8873;48.818;9.422;2023-02-28T06:08:41;12.23;;;5.83;;
17510;SDS011;8873;48.818;9.422;2023-02-28T06:11:11;10.23;;;5.57;;
17510;SDS011;8873;48.818;9.422;2023-02-28T06:13:40;12.13;;;5.80;;
17510;SDS011;8873;48.818;9.422;2023-02-28T06:16:07;28.07;;;10.10;;
17510;SDS011;8873;48.818;9.422;2023-02-28T06:18:35;28.27;;;9.97;;
17510;SDS011;8873;48.818;9.422;2023-02-28T06:21:03;14.33;;;6.97;;
17510;SDS011;8873;48.818;9.422;2023-02-28T06:23:30;11.90;;;6.90;;
17510;SDS011;8873;48.818;9.422;2023-02-28T06:25:58;12.07;;;6.13;;
17510;SDS011;8873;48.818;9.422;2023-02-28T06:28:25;16.17;;;7.03;;
17510;SDS011;8873;48.818;9.422;2023-02-28T06:30:54;12.83;;;6.57;;
17510;SDS011;8873;48.818;9.422;2023-02-28T06:33:22;10.33;;;5.90;;
17510;SDS011;8873;48.818;9.422;2023-02-28T06:35:49;16.33;;;6.43;;
17510;SDS011;8873;48.818;9.422;2023-02-28T06:38:17;11.27;;;6.13;;
17510;SDS011;8873;48.818;9.422;2023-02-28T06:40:48;8.37;;;5.37;;
17510;SDS011;8873;48.818;9.422;2023-02-28T06:43:19;9.03;;;5.67;;
17510;SDS011;8873;48.818;9.422;2023-02-28T06:45:47;11.47;;;6.17;;
17510;SDS011;8873;48.818;9.422;2023-02-28T06:48:16;10.50;;;5.90;;
17510;SDS011;8873;48.818;9.422;2023-02-28T06:50:45;13.50;;;7.00;;
17510;SDS011;8873;48.818;9.422;2023-02-28T06:53:13;11.10;;;6.03;;
17510;SDS011;8873;48.818;9.422;2023-02-28T06:55:40;10.03;;;6.23;;
17510;SDS011;8873;48.818;9.422;2023-02-28T06:58:08;9.70;;;5.60;;
17510;SDS011;8873;48.818;9.422;2023-02-28T07:00:41;10.83;;;5.83;;
17510;SDS011;8873;48.818;9.422;2023-02-28T07:03:08;12.53;;;6.30;;
17510;SDS011;8873;48.818;9.422;2023-02-28T07:05:37;10.73;;;6.27;;
17510;SDS011;8873;48.818;9.422;2023-02-28T07:08:05;13.33;;;6.70;;
17510;SDS011;8873;48.818;9.422;2023-02-28T07:10:33;15.03;;;6.60;;
17510;SDS011;8873;48.818;9.422;2023-02-28T07:13:01;11.10;;;6.03;;
17510;SDS011;8873;48.818;9.422;2023-02-28T07:15:30;14.57;;;7.37;;
17510;SDS011;8873;48.818;9.422;2023-02-28T07:17:57;13.07;;;6.87;;
17510;SDS011;8873;48.818;9.422;2023-02-28T07:20:25;16.73;;;6.93;;
17510;SDS011;8873;48.818;9.422;2023-02-28T07:22:54;12.37;;;6.57;;
17510;SDS011;8873;48.818;9.422;2023-02-28T07:25:22;11.53;;;6.50;;
17510;SDS011;8873;48.818;9.422;2023-02-28T07:27:50;11.97;;;6.43;;
17510;SDS011;8873;48.818;9.422;2023-02-28T07:30:18;11.07;;;6.10;;
17510;SDS011;8873;48.818;9.422;2023-02-28T07:32:48;16.23;;;6.47;;
17510;SDS011;8873;48.818;9.422;2023-02-28T07:35:15;16.47;;;7.70;;
17510;SDS011;8873;48.818;9.422;2023-02-28T07:37:43;12.03;;;7.77;;
17510;SDS011;8873;48.818;9.422;2023-02-28T07:40:13;11.37;;;7.30;;
17510;SDS011;8873;48.818;9.422;2023-02-28T07:42:41;12.77;;;6.83;;
17510;SDS011;8873;48.818;9.422;2023-02-28T07:45:09;11.53;;;6.30;;
17510;SDS011;8873;48.818;9.422;2023-02-28T07:47:38;11.70;;;6.27;;
17510;SDS011;8873;48.818;9.422;2023-02-28T07:50:09;11.00;;;6.60;;
17510;SDS011;8873;48.818;9.422;2023-02-28T07:52:41;14.00;;;6.70;;
17510;SDS011;8873;48.818;9.422;2023-02-28T07:55:11;13.20;;;6.70;;
17510;SDS011;8873;48.818;9.422;2023-02-28T07:57:41;10.80;;;6.60;;
17510;SDS011;8873;48.818;9.422;2023-02-28T08:00:18;13.70;;;6.97;;
17510;SDS011;8873;48.818;9.422;2023-02-28T08:03:11;12.40;;;6.40;;
17510;SDS011;8873;48.818;9.422;2023-02-28T08:05:43;12.17;;;6.80;;
17510;SDS011;8873;48.818;9.422;2023-02-28T08:08:14;13.23;;;6.70;;
17510;SDS011;8873;48.818;9.422;2023-02-28T08:10:59;14.93;;;7.07;;
17510;SDS011;8873;48.818;9.422;2023-02-28T08:13:37;23.87;;;7.50;;
17510;SDS011;8873;48.818;9.422;2023-02-28T08:16:05;12.73;;;6.70;;
17510;SDS011;8873;48.818;9.422;2023-02-28T08:18:41;15.70;;;7.23;;
17510;SDS011;8873;48.818;9.422;2023-02-28T08:21:38;12.50;;;6.77;;
17510;SDS011;8873;48.818;9.422;2023-02-28T08:24:23;13.80;;;7.20;;
17510;SDS011;8873;48.818;9.422;2023-02-28T08:26:51;12.70;;;6.80;;
17510;SDS011;8873;48.818;9.422;2023-02-28T08:29:20;12.40;;;6.43;;
17510;SDS011;8873;48.818;9.422;2023-02-28T08:31:48;14.80;;;7.77;;
17510;SDS011;8873;48.818;9.422;2023-02-28T08:34:16;14.70;;;6.70;;
17510;SDS011;8873;48.818;9.422;2023-02-28T08:36:44;13.47;;;7.00;;
17510;SDS011;8873;48.818;9.422;2023-02-28T08:39:12;15.00;;;7.47;;
17510;SDS011;8873;48.818;9.422;2023-02-28T08:41:39;13.10;;;7.73;;
17510;SDS011;8873;48.818;9.422;2023-02-28T08:44:07;14.40;;;7.53;;
17510;SDS011;8873;48.818;9.422;2023-02-28T08:46:36;13.80;;;6.97;;
17510;SDS011;8873;48.818;9.422;2023-02-28T08:49:03;14.27;;;7.23;;
17510;SDS011;8873;48.818;9.422;2023-02-28T08:51:31;13.13;;;6.60;;
17510;SDS011;8873;48.818;9.422;2023-02-28T08:53:59;11.07;;;6.60;;
17510;SDS011;8873;48.818;9.422;2023-02-28T08:56:28;12.57;;;6.43;;
17510;SDS011;8873;48.818;9.422;2023-02-28T08:58:56;17.13;;;7.63;;
17510;SDS011;8873;48.818;9.422;2023-02-28T09:01:25;14.10;;;7.33;;
17510;SDS011;8873;48.818;9.422;2023-02-28T09:03:58;15.77;;;8.13;;
17510;SDS011;8873;48.818;9.422;2023-02-28T09:06:25;12.63;;;7.30;;
17510;SDS011;8873;48.818;9.422;2023-02-28T09:08:56;15.87;;;7.03;;
17510;SDS011;8873;48.818;9.422;2023-02-28T09:11:24;12.93;;;7.07;;
17510;SDS011;8873;48.818;9.422;2023-02-28T09:13:52;15.10;;;7.43;;
17510;SDS011;8873;48.818;9.422;2023-02-28T09:16:21;14.60;;;8.07;;
17510;SDS011;8873;48.818;9.422;2023-02-28T09:18:49;11.63;;;7.10;;
17510;SDS011;8873;48.818;9.422;2023-02-28T09:21:18;21.17;;;8.53;;
17510;SDS011;8873;48.818;9.422;2023-02-28T09:23:47;14.50;;;8.10;;
17510;SDS011;8873;48.818;9.422;2023-02-28T09:26:15;15.20;;;7.90;;
17510;SDS011;8873;48.818;9.422;2023-02-28T09:28:43;19.63;;;7.70;;
17510;SDS011;8873;48.818;9.422;2023-02-28T09:31:11;14.43;;;6.97;;
17510;SDS011;8873;48.818;9.422;2023-02-28T09:33:39;13.30;;;8.27;;
17510;SDS011;8873;48.818;9.422;2023-02-28T09:36:07;15.93;;;8.40;;
17510;SDS011;8873;48.818;9.422;2023-02-28T09:38:36;21.67;;;9.40;;
17510;SDS011;8873;48.818;9.422;2023-02-28T09:41:10;25.17;;;9.67;;
17510;SDS011;8873;48.818;9.422;2023-02-28T09:43:40;18.37;;;8.67;;
17510;SDS011;8873;48.818;9.422;2023-02-28T09:46:08;20.47;;;8.50;;
17510;SDS011;8873;48.818;9.422;2023-02-28T09:48:41;14.40;;;7.97;;
17510;SDS011;8873;48.818;9.422;2023-02-28T09:51:23;17.13;;;8.17;;
17510;SDS011;8873;48.818;9.422;2023-02-28T09:53:56;18.40;;;9.23;;
17510;SDS011;8873;48.818;9.422;2023-02-28T09:56:28;13.83;;;7.43;;
17510;SDS011;8873;48.818;9.422;2023-02-28T09:58:58;12.90;;;7.23;;
17510;SDS011;8873;48.818;9.422;2023-02-28T10:01:29;12.83;;;7.23;;
17510;SDS011;8873;48.818;9.422;2023-02-28T10:04:00;15.00;;;7.07;;
17510;SDS011;8873;48.818;9.422;2023-02-28T10:06:32;14.03;;;7.73;;
17510;SDS011;8873;48.818;9.422;2023-02-28T10:09:05;13.33;;;7.30;;
17510;SDS011;8873;48.818;9.422;2023-02-28T10:11:36;13.90;;;7.23;;
17510;SDS011;8873;48.818;9.422;2023-02-28T10:14:05;14.70;;;7.73;;
17510;SDS011;8873;48.818;9.422;2023-02-28T10:16:34;15.47;;;7.00;;
17510;SDS011;8873;48.818;9.422;2023-02-28T10:19:04;13.83;;;7.27;;
17510;SDS011;8873;48.818;9.422;2023-02-28T10:21:34;12.90;;;7.20;;
17510;SDS011;8873;48.818;9.422;2023-02-28T10:24:05;17.80;;;7.70;;
17510;SDS011;8873;48.818;9.422;2023-02-28T10:26:38;15.00;;;7.93;;
17510;SDS011;8873;48.818;9.422;2023-02-28T10:29:08;12.80;;;7.47;;
17510;SDS011;8873;48.818;9.422;2023-02-28T10:31:35;12.30;;;7.30;;
17510;SDS011;8873;48.818;9.422;2023-02-28T10:34:03;11.90;;;7.63;;
17510;SDS011;8873;48.818;9.422;2023-02-28T10:36:32;12.27;;;7.33;;
17510;SDS011;8873;48.818;9.422;2023-02-28T10:39:01;13.55;;;7.57;;
17510;SDS011;8873;48.818;9.422;2023-02-28T10:41:50;12.93;;;7.40;;
17510;SDS011;8873;48.818;9.422;2023-02-28T10:44:19;14.88;;;7.47;;
17510;SDS011;8873;48.818;9.422;2023-02-28T10:46:48;16.20;;;7.45;;
17510;SDS011;8873;48.818;9.422;2023-02-28T10:49:17;14.35;;;8.05;;
17510;SDS011;8873;48.818;9.422;2023-02-28T10:51:45;12.40;;;7.65;;
17510;SDS011;8873;48.818;9.422;2023-02-28T10:54:15;13.18;;;7.30;;
17510;SDS011;8873;48.818;9.422;2023-02-28T10:56:43;13.27;;;7.83;;
17510;SDS011;8873;48.818;9.422;2023-02-28T10:59:27;13.35;;;7.45;;
17510;SDS011;8873;48.818;9.422;2023-02-28T11:01:56;14.27;;;8.55;;
17510;SDS011;8873;48.818;9.422;2023-02-28T11:04:33;13.40;;;7.65;;
17510;SDS011;8873;48.818;9.422;2023-02-28T11:07:04;12.32;;;7.45;;
17510;SDS011;8873;48.818;9.422;2023-02-28T11:09:33;11.48;;;7.10;;
17510;SDS011;8873;48.818;9.422;2023-02-28T11:12:02;10.95;;;7.32;;
17510;SDS011;8873;48.818;9.422;2023-02-28T11:14:33;15.02;;;7.57;;
17510;SDS011;8873;48.818;9.422;2023-02-28T11:17:11;9.43;;;7.15;;
17510;SDS011;8873;48.818;9.422;2023-02-28T11:19:45;15.18;;;7.80;;
17510;SDS011;8873;48.818;9.422;2023-02-28T11:22:16;20.48;;;9.02;;
17510;SDS011;8873;48.818;9.422;2023-02-28T11:24:45;14.10;;;8.32;;
17510;SDS011;8873;48.818;9.422;2023-02-28T11:27:24;15.40;;;8.27;;
17510;SDS011;8873;48.818;9.422;2023-02-28T11:29:53;13.07;;;7.97;;
17510;SDS011;8873;48.818;9.422;2023-02-28T11:32:21;13.52;;;7.43;;
17510;SDS011;8873;48.818;9.422;2023-02-28T11:34:59;10.70;;;7.32;;
17510;SDS011;8873;48.818;9.422;2023-02-28T11:37:27;11.45;;;7.32;;
17510;SDS011;8873;48.818;9.422;2023-02-28T11:39:56;12.77;;;8.27;;
17510;SDS011;8873;48.818;9.422;2023-02-28T11:42:27;12.38;;;7.47;;
17510;SDS011;8873;48.818;9.422;2023-02-28T11:45:11;13.45;;;7.85;;
17510;SDS011;8873;48.818;9.422;2023-02-28T11:47:44;10.88;;;7.65;;
17510;SDS011;8873;48.818;9.422;2023-02-28T11:50:22;11.35;;;7.38;;
17510;SDS011;8873;48.818;9.422;2023-02-28T11:52:54;13.38;;;7.50;;
17510;SDS011;8873;48.818;9.422;2023-02-28T11:55:24;18.00;;;8.88;;
17510;SDS011;8873;48.818;9.422;2023-02-28T11:57:56;14.63;;;8.40;;
17510;SDS011;8873;48.818;9.422;2023-02-28T12:00:33;13.38;;;7.53;;
17510;SDS011;8873;48.818;9.422;2023-02-28T12:03:04;11.23;;;7.40;;
17510;SDS011;8873;48.818;9.422;2023-02-28T12:05:38;9.25;;;6.80;;
17510;SDS011;8873;48.818;9.422;2023-02-28T12:08:15;10.15;;;7.15;;
17510;SDS011;8873;48.818;9.422;2023-02-28T12:10:51;10.00;;;6.93;;
17510;SDS011;8873;48.818;9.422;2023-02-28T12:13:22;11.73;;;7.43;;
17510;SDS011;8873;48.818;9.422;2023-02-28T12:18:47;13.02;;;7.40;;
17510;SDS011;8873;48.818;9.422;2023-02-28T12:21:21;11.52;;;7.25;;
17510;SDS011;8873;48.818;9.422;2023-02-28T12:23:59;12.93;;;7.43;;
17510;SDS011;8873;48.818;9.422;2023-02-28T12:26:31;10.27;;;7.35;;
17510;SDS011;8873;48.818;9.422;2023-02-28T12:29:00;12.75;;;7.60;;
17510;SDS011;8873;48.818;9.422;2023-02-28T12:31:30;12.70;;;7.63;;
17510;SDS011;8873;48.818;9.422;2023-02-28T12:34:03;11.43;;;7.30;;
17510;SDS011;8873;48.818;9.422;2023-02-28T12:36:32;9.98;;;7.28;;
17510;SDS011;8873;48.818;9.422;2023-02-28T12:39:04;9.82;;;7.45;;
17510;SDS011;8873;48.818;9.422;2023-02-28T12:41:38;10.45;;;6.57;;
17510;SDS011;8873;48.818;9.422;2023-02-28T12:44:09;9.63;;;7.30;;
17510;SDS011;8873;48.818;9.422;2023-02-28T12:46:40;10.38;;;7.88;;
17510;SDS011;8873;48.818;9.422;2023-02-28T12:49:10;12.55;;;7.65;;
17510;SDS011;8873;48.818;9.422;2023-02-28T12:51:39;14.70;;;7.50;;
17510;SDS011;8873;48.818;9.422;2023-02-28T12:54:10;9.70;;;7.68;;
17510;SDS011;8873;48.818;9.422;2023-02-28T12:56:42;10.13;;;7.10;;
17510;SDS011;8873;48.818;9.422;2023-02-28T12:59:13;12.88;;;7.28;;
17510;SDS011;8873;48.818;9.422;2023-02-28T13:01:48;11.90;;;7.80;;
17510;SDS011;8873;48.818;9.422;2023-02-28T13:04:31;11.32;;;6.97;;
17510;SDS011;8873;48.818;9.422;2023-02-28T13:07:08;13.98;;;8.13;;
17510;SDS011;8873;48.818;9.422;2023-02-28T13:09:38;11.20;;;7.53;;
17510;SDS011;8873;48.818;9.422;2023-02-28T13:12:12;9.45;;;7.03;;
17510;SDS011;8873;48.818;9.422;2023-02-28T13:14:39;13.20;;;7.43;;
17510;SDS011;8873;48.818;9.422;2023-02-28T13:17:11;11.32;;;7.35;;
17510;SDS011;8873;48.818;9.422;2023-02-28T13:19:43;13.35;;;7.43;;
17510;SDS011;8873;48.818;9.422;2023-02-28T13:22:17;10.93;;;7.28;;
17510;SDS011;8873;48.818;9.422;2023-02-28T13:24:46;8.70;;;7.00;;
17510;SDS011;8873;48.818;9.422;2023-02-28T13:27:22;8.48;;;6.68;;
17510;SDS011;8873;48.818;9.422;2023-02-28T13:29:51;9.70;;;7.25;;
17510;SDS011;8873;48.818;9.422;2023-02-28T13:32:19;9.13;;;6.97;;
17510;SDS011;8873;48.818;9.422;2023-02-28T13:35:12;10.98;;;7.47;;
17510;SDS011;8873;48.818;9.422;2023-02-28T13:37:42;11.07;;;7.20;;
17510;SDS011;8873;48.818;9.422;2023-02-28T13:40:29;8.98;;;7.00;;
17510;SDS011;8873;48.818;9.422;2023-02-28T13:43:03;9.70;;;6.93;;
17510;SDS011;8873;48.818;9.422;2023-02-28T13:45:31;7.93;;;6.38;;
17510;SDS011;8873;48.818;9.422;2023-02-28T13:48:04;10.43;;;6.97;;
17510;SDS011;8873;48.818;9.422;2023-02-28T13:50:34;10.63;;;6.97;;
17510;SDS011;8873;48.818;9.422;2023-02-28T13:53:14;10.35;;;6.95;;
17510;SDS011;8873;48.818;9.422;2023-02-28T13:55:48;8.82;;;7.15;;
17510;SDS011;8873;48.818;9.422;2023-02-28T13:58:26;12.27;;;7.60;;
17510;SDS011;8873;48.818;9.422;2023-02-28T14:01:00;11.30;;;6.95;;
17510;SDS011;8873;48.818;9.422;2023-02-28T14:03:43;10.23;;;7.70;;
17510;SDS011;8873;48.818;9.422;2023-02-28T14:06:21;13.25;;;6.97;;
17510;SDS011;8873;48.818;9.422;2023-02-28T14:08:54;10.15;;;7.10;;
17510;SDS011;8873;48.818;9.422;2023-02-28T14:11:27;10.45;;;7.30;;
17510;SDS011;8873;48.818;9.422;2023-02-28T14:13:55;10.27;;;7.07;;
17510;SDS011;8873;48.818;9.422;2023-02-28T14:16:23;10.60;;;7.55;;
17510;SDS011;8873;48.818;9.422;2023-02-28T14:18:55;14.18;;;7.20;;
17510;SDS011;8873;48.818;9.422;2023-02-28T14:21:25;10.00;;;6.88;;
17510;SDS011;8873;48.818;9.422;2023-02-28T14:24:21;10.82;;;7.22;;
17510;SDS011;8873;48.818;9.422;2023-02-28T14:26:55;9.18;;;6.25;;
17510;SDS011;8873;48.818;9.422;2023-02-28T14:29:30;9.07;;;6.53;;
17510;SDS011;8873;48.818;9.422;2023-02-28T14:32:05;10.05;;;6.95;;
17510;SDS011;8873;48.818;9.422;2023-02-28T14:34:39;11.68;;;6.95;;
17510;SDS011;8873;48.818;9.422;2023-02-28T14:37:13;9.88;;;6.78;;
17510;SDS011;8873;48.818;9.422;2023-02-28T14:39:43;11.13;;;7.07;;
17510;SDS011;8873;48.818;9.422;2023-02-28T14:44:57;10.68;;;6.55;;
17510;SDS011;8873;48.818;9.422;2023-02-28T14:47:27;12.45;;;7.32;;
17510;SDS011;8873;48.818;9.422;2023-02-28T14:49:55;10.13;;;6.80;;
17510;SDS011;8873;48.818;9.422;2023-02-28T14:52:26;10.25;;;6.85;;
17510;SDS011;8873;48.818;9.422;2023-02-28T14:54:57;10.57;;;7.22;;
17510;SDS011;8873;48.818;9.422;2023-02-28T14:57:26;11.73;;;7.07;;
17510;SDS011;8873;48.818;9.422;2023-02-28T14:59:58;11.07;;;7.22;;
17510;SDS011;8873;48.818;9.422;2023-02-28T15:02:26;11.23;;;7.10;;
17510;SDS011;8873;48.818;9.422;2023-02-28T15:04:58;13.50;;;7.25;;
17510;SDS011;8873;48.818;9.422;2023-02-28T15:07:29;15.85;;;7.55;;
17510;SDS011;8873;48.818;9.422;2023-02-28T15:10:10;10.27;;;7.15;;
17510;SDS011;8873;48.818;9.422;2023-02-28T15:12:39;12.93;;;8.20;;
17510;SDS011;8873;48.818;9.422;2023-02-28T15:15:13;12.25;;;7.60;;
17510;SDS011;8873;48.818;9.422;2023-02-28T15:17:44;11.93;;;7.53;;
17510;SDS011;8873;48.818;9.422;2023-02-28T15:20:13;14.38;;;7.57;;
17510;SDS011;8873;48.818;9.422;2023-02-28T15:22:42;13.07;;;7.55;;
17510;SDS011;8873;48.818;9.422;2023-02-28T15:25:13;11.13;;;7.85;;
17510;SDS011;8873;48.818;9.422;2023-02-28T15:27:44;12.07;;;7.15;;
17510;SDS011;8873;48.818;9.422;2023-02-28T15:30:15;12.48;;;7.55;;
17510;SDS011;8873;48.818;9.422;2023-02-28T15:32:43;11.25;;;7.15;;
17510;SDS011;8873;48.818;9.422;2023-02-28T15:35:19;10.85;;;7.10;;